sensor_id;sensor_type;location;lat;lon;timestamp;P1;durP1;ratioP1;P2;durP2;ratioP2
47053;SDS011;32811;52.382;5.270;2022-07-09T00:00:28;3.85;;;1.65;;
47053;SDS011;32811;52.382;5.270;2022-07-09T00:02:55;3.53;;;1.48;;
47053;SDS011;32811;52.382;5.270;2022-07-09T00:05:22;1.90;;;1.38;;
47053;SDS011;32811;52.382;5.270;2022-07-09T00:07:48;7.03;;;1.83;;
47053;SDS011;32811;52.382;5.270;2022-07-09T00:10:15;2.80;;;1.77;;
47053;SDS011;32811;52.382;5.270;2022-07-09T00:12:41;4.97;;;2.47;;
47053;SDS011;32811;52.382;5.270;2022-07-09T00:15:08;2.88;;;1.33;;
47053;SDS011;32811;52.382;5.270;2022-07-09T00:17:35;5.07;;;1.40;;
47053;SDS011;32811;52.382;5.270;2022-07-09T00:20:02;5.15;;;1.75;;
47053;SDS011;32811;52.382;5.270;2022-07-09T00:22:31;3.50;;;1.58;;
47053;SDS011;32811;52.382;5.270;2022-07-09T00:24:58;3.75;;;1.48;;
47053;SDS011;32811;52.382;5.270;2022-07-09T00:27:25;3.10;;;1.10;;
47053;SDS011;32811;52.382;5.270;2022-07-09T00:29:52;6.10;;;1.75;;
47053;SDS011;32811;52.382;5.270;2022-07-09T00:32:18;3.47;;;1.55;;
47053;SDS011;32811;52.382;5.270;2022-07-09T00:34:45;4.63;;;1.80;;
47053;SDS011;32811;52.382;5.270;2022-07-09T00:37:13;4.88;;;2.10;;
47053;SDS011;32811;52.382;5.270;2022-07-09T00:39:39;5.32;;;2.42;;
47053;SDS011;32811;52.382;5.270;2022-07-09T00:42:07;3.03;;;1.50;;
47053;SDS011;32811;52.382;5.270;2022-07-09T00:44:34;3.65;;;1.73;;
47053;SDS011;32811;52.382;5.270;2022-07-09T00:47:02;2.25;;;1.23;;
47053;SDS011;32811;52.382;5.270;2022-07-09T00:49:30;2.20;;;1.45;;
47053;SDS011;32811;52.382;5.270;2022-07-09T00:51:58;2.70;;;1.42;;
47053;SDS011;32811;52.382;5.270;2022-07-09T00:54:25;4.00;;;1.80;;
47053;SDS011;32811;52.382;5.270;2022-07-09T00:56:52;4.18;;;1.73;;
47053;SDS011;32811;52.382;5.270;2022-07-09T00:59:20;3.05;;;1.40;;
47053;SDS011;32811;52.382;5.270;2022-07-09T01:01:50;3.42;;;1.67;;
47053;SDS011;32811;52.382;5.270;2022-07-09T01:04:17;3.00;;;1.60;;
47053;SDS011;32811;52.382;5.270;2022-07-09T01:06:44;3.88;;;1.67;;
47053;SDS011;32811;52.382;5.270;2022-07-09T01:09:11;2.72;;;1.48;;
47053;SDS011;32811;52.382;5.270;2022-07-09T01:11:39;6.60;;;1.77;;
47053;SDS011;32811;52.382;5.270;2022-07-09T01:14:06;5.07;;;1.63;;
47053;SDS011;32811;52.382;5.270;2022-07-09T01:16:33;2.88;;;1.50;;
47053;SDS011;32811;52.382;5.270;2022-07-09T01:19:01;3.13;;;1.60;;
47053;SDS011;32811;52.382;5.270;2022-07-09T01:21:28;3.83;;;2.10;;
47053;SDS011;32811;52.382;5.270;2022-07-09T01:23:54;5.28;;;2.28;;
47053;SDS011;32811;52.382;5.270;2022-07-09T01:26:21;4.80;;;2.20;;
47053;SDS011;32811;52.382;5.270;2022-07-09T01:28:49;3.65;;;1.88;;
47053;SDS011;32811;52.382;5.270;2022-07-09T01:31:16;4.72;;;1.95;;
47053;SDS011;32811;52.382;5.270;2022-07-09T01:33:55;4.68;;;2.50;;
47053;SDS011;32811;52.382;5.270;2022-07-09T01:36:22;5.32;;;2.65;;
47053;SDS011;32811;52.382;5.270;2022-07-09T01:38:49;8.55;;;2.58;;
47053;SDS011;32811;52.382;5.270;2022-07-09T01:41:15;6.07;;;2.63;;
47053;SDS011;32811;52.382;5.270;2022-07-09T01:43:42;5.50;;;2.88;;
47053;SDS011;32811;52.382;5.270;2022-07-09T01:46:08;7.00;;;2.38;;
47053;SDS011;32811;52.382;5.270;2022-07-09T01:48:35;4.55;;;2.53;;
47053;SDS011;32811;52.382;5.270;2022-07-09T01:51:02;5.88;;;2.10;;
47053;SDS011;32811;52.382;5.270;2022-07-09T01:53:28;3.60;;;1.85;;
47053;SDS011;32811;52.382;5.270;2022-07-09T01:55:56;4.82;;;2.22;;
47053;SDS011;32811;52.382;5.270;2022-07-09T01:58:22;4.90;;;3.05;;
47053;SDS011;32811;52.382;5.270;2022-07-09T02:00:49;7.15;;;2.50;;
47053;SDS011;32811;52.382;5.270;2022-07-09T02:03:15;4.20;;;2.50;;
47053;SDS011;32811;52.382;5.270;2022-07-09T02:05:42;4.90;;;2.83;;
47053;SDS011;32811;52.382;5.270;2022-07-09T02:08:08;5.28;;;3.05;;
47053;SDS011;32811;52.382;5.270;2022-07-09T02:10:35;12.32;;;3.85;;
47053;SDS011;32811;52.382;5.270;2022-07-09T02:13:01;4.82;;;2.97;;
47053;SDS011;32811;52.382;5.270;2022-07-09T02:15:28;4.72;;;2.60;;
47053;SDS011;32811;52.382;5.270;2022-07-09T02:17:55;5.30;;;2.90;;
47053;SDS011;32811;52.382;5.270;2022-07-09T02:20:21;9.07;;;4.55;;
47053;SDS011;32811;52.382;5.270;2022-07-09T02:22:48;7.05;;;4.75;;
47053;SDS011;32811;52.382;5.270;2022-07-09T02:25:15;10.05;;;5.30;;
47053;SDS011;32811;52.382;5.270;2022-07-09T02:27:42;5.90;;;3.70;;
47053;SDS011;32811;52.382;5.270;2022-07-09T02:30:08;4.95;;;3.97;;
47053;SDS011;32811;52.382;5.270;2022-07-09T02:32:35;11.07;;;5.43;;
47053;SDS011;32811;52.382;5.270;2022-07-09T02:35:04;8.40;;;6.15;;
47053;SDS011;32811;52.382;5.270;2022-07-09T02:37:32;13.77;;;6.30;;
47053;SDS011;32811;52.382;5.270;2022-07-09T02:40:00;5.82;;;4.28;;
47053;SDS011;32811;52.382;5.270;2022-07-09T02:42:26;8.20;;;4.13;;
47053;SDS011;32811;52.382;5.270;2022-07-09T02:44:53;6.70;;;4.70;;
47053;SDS011;32811;52.382;5.270;2022-07-09T02:47:19;9.98;;;5.65;;
47053;SDS011;32811;52.382;5.270;2022-07-09T02:49:46;6.65;;;4.93;;
47053;SDS011;32811;52.382;5.270;2022-07-09T02:52:12;9.00;;;5.05;;
47053;SDS011;32811;52.382;5.270;2022-07-09T02:54:39;7.50;;;4.85;;
47053;SDS011;32811;52.382;5.270;2022-07-09T02:57:05;6.25;;;4.63;;
47053;SDS011;32811;52.382;5.270;2022-07-09T02:59:32;6.53;;;4.13;;
47053;SDS011;32811;52.382;5.270;2022-07-09T03:01:58;5.65;;;4.47;;
47053;SDS011;32811;52.382;5.270;2022-07-09T03:04:26;4.43;;;3.70;;
47053;SDS011;32811;52.382;5.270;2022-07-09T03:06:52;6.75;;;3.45;;
47053;SDS011;32811;52.382;5.270;2022-07-09T03:09:19;5.28;;;3.67;;
47053;SDS011;32811;52.382;5.270;2022-07-09T03:11:45;8.50;;;4.35;;
47053;SDS011;32811;52.382;5.270;2022-07-09T03:14:12;4.88;;;3.08;;
47053;SDS011;32811;52.382;5.270;2022-07-09T03:16:38;4.45;;;2.90;;
47053;SDS011;32811;52.382;5.270;2022-07-09T03:19:05;6.90;;;3.30;;
47053;SDS011;32811;52.382;5.270;2022-07-09T03:21:31;7.43;;;4.07;;
47053;SDS011;32811;52.382;5.270;2022-07-09T03:23:58;7.85;;;3.22;;
47053;SDS011;32811;52.382;5.270;2022-07-09T03:26:25;3.10;;;2.55;;
47053;SDS011;32811;52.382;5.270;2022-07-09T03:28:51;5.13;;;2.78;;
47053;SDS011;32811;52.382;5.270;2022-07-09T03:31:18;5.53;;;3.47;;
47053;SDS011;32811;52.382;5.270;2022-07-09T03:33:44;5.03;;;3.00;;
47053;SDS011;32811;52.382;5.270;2022-07-09T03:36:11;6.60;;;3.03;;
47053;SDS011;32811;52.382;5.270;2022-07-09T03:38:38;5.47;;;3.38;;
47053;SDS011;32811;52.382;5.270;2022-07-09T03:41:04;8.13;;;3.60;;
47053;SDS011;32811;52.382;5.270;2022-07-09T03:43:31;3.58;;;2.28;;
47053;SDS011;32811;52.382;5.270;2022-07-09T03:45:57;3.90;;;1.98;;
47053;SDS011;32811;52.382;5.270;2022-07-09T03:48:25;2.75;;;2.15;;
47053;SDS011;32811;52.382;5.270;2022-07-09T03:50:51;5.43;;;3.33;;
47053;SDS011;32811;52.382;5.270;2022-07-09T03:53:18;2.60;;;2.00;;
47053;SDS011;32811;52.382;5.270;2022-07-09T03:55:44;3.17;;;2.00;;
47053;SDS011;32811;52.382;5.270;2022-07-09T03:58:11;3.22;;;2.15;;
47053;SDS011;32811;52.382;5.270;2022-07-09T04:00:37;2.95;;;2.10;;
47053;SDS011;32811;52.382;5.270;2022-07-09T04:03:04;1.73;;;1.30;;
47053;SDS011;32811;52.382;5.270;2022-07-09T04:05:30;2.88;;;1.83;;
47053;SDS011;32811;52.382;5.270;2022-07-09T04:07:57;3.47;;;1.52;;
47053;SDS011;32811;52.382;5.270;2022-07-09T04:10:24;2.80;;;2.13;;
47053;SDS011;32811;52.382;5.270;2022-07-09T04:12:50;2.55;;;1.80;;
47053;SDS011;32811;52.382;5.270;2022-07-09T04:15:17;3.45;;;2.05;;
47053;SDS011;32811;52.382;5.270;2022-07-09T04:17:43;1.90;;;1.38;;
47053;SDS011;32811;52.382;5.270;2022-07-09T04:20:10;1.77;;;1.52;;
47053;SDS011;32811;52.382;5.270;2022-07-09T04:22:37;2.88;;;2.10;;
47053;SDS011;32811;52.382;5.270;2022-07-09T04:25:03;3.55;;;2.03;;
47053;SDS011;32811;52.382;5.270;2022-07-09T04:27:30;4.50;;;2.50;;
47053;SDS011;32811;52.382;5.270;2022-07-09T04:29:57;4.15;;;2.20;;
47053;SDS011;32811;52.382;5.270;2022-07-09T04:32:24;5.25;;;2.15;;
47053;SDS011;32811;52.382;5.270;2022-07-09T04:34:51;2.92;;;1.63;;
47053;SDS011;32811;52.382;5.270;2022-07-09T04:37:17;6.10;;;2.00;;
47053;SDS011;32811;52.382;5.270;2022-07-09T04:39:44;4.57;;;2.17;;
47053;SDS011;32811;52.382;5.270;2022-07-09T04:42:10;2.28;;;1.95;;
47053;SDS011;32811;52.382;5.270;2022-07-09T04:44:39;2.97;;;1.80;;
47053;SDS011;32811;52.382;5.270;2022-07-09T04:47:05;4.82;;;2.05;;
47053;SDS011;32811;52.382;5.270;2022-07-09T04:49:32;7.85;;;1.90;;
47053;SDS011;32811;52.382;5.270;2022-07-09T04:52:03;3.88;;;1.73;;
47053;SDS011;32811;52.382;5.270;2022-07-09T04:54:30;3.17;;;2.00;;
47053;SDS011;32811;52.382;5.270;2022-07-09T04:56:57;2.47;;;1.55;;
47053;SDS011;32811;52.382;5.270;2022-07-09T04:59:23;5.75;;;1.75;;
47053;SDS011;32811;52.382;5.270;2022-07-09T05:01:50;5.13;;;1.83;;
47053;SDS011;32811;52.382;5.270;2022-07-09T05:04:17;6.43;;;2.28;;
47053;SDS011;32811;52.382;5.270;2022-07-09T05:06:44;3.70;;;1.90;;
47053;SDS011;32811;52.382;5.270;2022-07-09T05:09:10;7.18;;;1.52;;
47053;SDS011;32811;52.382;5.270;2022-07-09T05:11:37;2.03;;;1.30;;
47053;SDS011;32811;52.382;5.270;2022-07-09T05:14:03;2.58;;;1.60;;
47053;SDS011;32811;52.382;5.270;2022-07-09T05:16:30;6.05;;;1.90;;
47053;SDS011;32811;52.382;5.270;2022-07-09T05:18:56;2.22;;;1.63;;
47053;SDS011;32811;52.382;5.270;2022-07-09T05:21:23;2.13;;;1.30;;
47053;SDS011;32811;52.382;5.270;2022-07-09T05:23:51;2.42;;;1.30;;
47053;SDS011;32811;52.382;5.270;2022-07-09T05:26:17;3.58;;;1.30;;
47053;SDS011;32811;52.382;5.270;2022-07-09T05:28:44;2.90;;;1.50;;
47053;SDS011;32811;52.382;5.270;2022-07-09T05:31:10;2.15;;;1.20;;
47053;SDS011;32811;52.382;5.270;2022-07-09T05:33:57;3.28;;;1.35;;
47053;SDS011;32811;52.382;5.270;2022-07-09T05:36:24;2.47;;;1.65;;
47053;SDS011;32811;52.382;5.270;2022-07-09T05:38:50;5.28;;;1.65;;
47053;SDS011;32811;52.382;5.270;2022-07-09T05:41:17;5.25;;;1.77;;
47053;SDS011;32811;52.382;5.270;2022-07-09T05:43:45;5.40;;;1.83;;
47053;SDS011;32811;52.382;5.270;2022-07-09T05:46:11;3.33;;;1.58;;
47053;SDS011;32811;52.382;5.270;2022-07-09T05:48:38;4.10;;;1.20;;
47053;SDS011;32811;52.382;5.270;2022-07-09T05:51:05;5.43;;;1.35;;
47053;SDS011;32811;52.382;5.270;2022-07-09T05:53:31;3.42;;;1.30;;
47053;SDS011;32811;52.382;5.270;2022-07-09T05:55:58;2.90;;;1.15;;
47053;SDS011;32811;52.382;5.270;2022-07-09T05:58:24;2.35;;;1.00;;
47053;SDS011;32811;52.382;5.270;2022-07-09T06:00:51;2.90;;;0.95;;
47053;SDS011;32811;52.382;5.270;2022-07-09T06:03:18;3.60;;;1.20;;
47053;SDS011;32811;52.382;5.270;2022-07-09T06:05:44;2.20;;;1.08;;
47053;SDS011;32811;52.382;5.270;2022-07-09T06:08:11;3.25;;;1.60;;
47053;SDS011;32811;52.382;5.270;2022-07-09T06:10:38;2.88;;;1.15;;
47053;SDS011;32811;52.382;5.270;2022-07-09T06:13:05;5.22;;;2.10;;
47053;SDS011;32811;52.382;5.270;2022-07-09T06:15:31;2.70;;;1.38;;
47053;SDS011;32811;52.382;5.270;2022-07-09T06:17:58;4.13;;;1.45;;
47053;SDS011;32811;52.382;5.270;2022-07-09T06:20:24;8.02;;;2.00;;
47053;SDS011;32811;52.382;5.270;2022-07-09T06:22:51;6.07;;;2.22;;
47053;SDS011;32811;52.382;5.270;2022-07-09T06:25:18;3.97;;;1.95;;
47053;SDS011;32811;52.382;5.270;2022-07-09T06:27:44;3.83;;;1.85;;
47053;SDS011;32811;52.382;5.270;2022-07-09T06:30:11;5.10;;;2.35;;
47053;SDS011;32811;52.382;5.270;2022-07-09T06:32:38;5.65;;;2.40;;
47053;SDS011;32811;52.382;5.270;2022-07-09T06:35:04;6.00;;;2.35;;
47053;SDS011;32811;52.382;5.270;2022-07-09T06:37:32;6.25;;;2.83;;
47053;SDS011;32811;52.382;5.270;2022-07-09T06:39:58;4.60;;;2.22;;
47053;SDS011;32811;52.382;5.270;2022-07-09T06:42:25;2.72;;;2.30;;
47053;SDS011;32811;52.382;5.270;2022-07-09T06:45:00;4.75;;;2.58;;
47053;SDS011;32811;52.382;5.270;2022-07-09T06:47:26;3.70;;;1.98;;
47053;SDS011;32811;52.382;5.270;2022-07-09T06:49:53;4.90;;;2.25;;
47053;SDS011;32811;52.382;5.270;2022-07-09T06:52:19;3.42;;;2.03;;
47053;SDS011;32811;52.382;5.270;2022-07-09T06:54:46;4.55;;;2.15;;
47053;SDS011;32811;52.382;5.270;2022-07-09T06:57:13;6.20;;;2.67;;
47053;SDS011;32811;52.382;5.270;2022-07-09T06:59:40;4.35;;;1.70;;
47053;SDS011;32811;52.382;5.270;2022-07-09T07:02:06;3.30;;;1.63;;
47053;SDS011;32811;52.382;5.270;2022-07-09T07:04:33;4.32;;;1.75;;
47053;SDS011;32811;52.382;5.270;2022-07-09T07:07:00;3.08;;;1.33;;
47053;SDS011;32811;52.382;5.270;2022-07-09T07:09:27;3.65;;;1.20;;
47053;SDS011;32811;52.382;5.270;2022-07-09T07:11:54;7.20;;;0.98;;
47053;SDS011;32811;52.382;5.270;2022-07-09T07:14:21;3.83;;;1.63;;
47053;SDS011;32811;52.382;5.270;2022-07-09T07:16:48;2.72;;;1.33;;
47053;SDS011;32811;52.382;5.270;2022-07-09T07:19:14;1.98;;;1.45;;
47053;SDS011;32811;52.382;5.270;2022-07-09T07:21:41;3.97;;;1.30;;
47053;SDS011;32811;52.382;5.270;2022-07-09T07:24:07;2.05;;;1.50;;
47053;SDS011;32811;52.382;5.270;2022-07-09T07:26:34;3.10;;;1.60;;
47053;SDS011;32811;52.382;5.270;2022-07-09T07:29:01;2.55;;;1.25;;
47053;SDS011;32811;52.382;5.270;2022-07-09T07:31:28;4.47;;;2.47;;
47053;SDS011;32811;52.382;5.270;2022-07-09T07:33:55;2.22;;;1.00;;
47053;SDS011;32811;52.382;5.270;2022-07-09T07:36:21;2.47;;;1.33;;
47053;SDS011;32811;52.382;5.270;2022-07-09T07:38:48;2.53;;;1.20;;
47053;SDS011;32811;52.382;5.270;2022-07-09T07:41:15;2.25;;;1.35;;
47053;SDS011;32811;52.382;5.270;2022-07-09T07:43:45;3.13;;;1.17;;
47053;SDS011;32811;52.382;5.270;2022-07-09T07:46:11;3.25;;;1.10;;
47053;SDS011;32811;52.382;5.270;2022-07-09T07:48:38;3.13;;;1.00;;
47053;SDS011;32811;52.382;5.270;2022-07-09T07:51:07;3.42;;;2.08;;
47053;SDS011;32811;52.382;5.270;2022-07-09T07:53:35;3.50;;;1.13;;
47053;SDS011;32811;52.382;5.270;2022-07-09T07:56:02;3.22;;;1.15;;
47053;SDS011;32811;52.382;5.270;2022-07-09T07:58:30;3.42;;;1.10;;
47053;SDS011;32811;52.382;5.270;2022-07-09T08:00:57;1.02;;;0.73;;
47053;SDS011;32811;52.382;5.270;2022-07-09T08:03:24;2.70;;;1.08;;
47053;SDS011;32811;52.382;5.270;2022-07-09T08:05:57;3.33;;;1.00;;
47053;SDS011;32811;52.382;5.270;2022-07-09T08:08:24;2.92;;;0.73;;
47053;SDS011;32811;52.382;5.270;2022-07-09T08:10:51;2.35;;;0.77;;
47053;SDS011;32811;52.382;5.270;2022-07-09T08:13:17;3.85;;;1.52;;
47053;SDS011;32811;52.382;5.270;2022-07-09T08:15:44;2.05;;;0.63;;
47053;SDS011;32811;52.382;5.270;2022-07-09T08:18:11;3.60;;;1.58;;
47053;SDS011;32811;52.382;5.270;2022-07-09T08:20:40;3.75;;;0.93;;
47053;SDS011;32811;52.382;5.270;2022-07-09T08:23:07;1.90;;;1.25;;
47053;SDS011;32811;52.382;5.270;2022-07-09T08:25:34;1.83;;;0.55;;
47053;SDS011;32811;52.382;5.270;2022-07-09T08:28:01;1.15;;;0.73;;
47053;SDS011;32811;52.382;5.270;2022-07-09T08:30:29;3.35;;;0.98;;
47053;SDS011;32811;52.382;5.270;2022-07-09T08:32:55;2.67;;;0.75;;
47053;SDS011;32811;52.382;5.270;2022-07-09T08:35:22;1.73;;;0.90;;
47053;SDS011;32811;52.382;5.270;2022-07-09T08:37:49;2.45;;;0.60;;
47053;SDS011;32811;52.382;5.270;2022-07-09T08:40:15;5.38;;;0.90;;
47053;SDS011;32811;52.382;5.270;2022-07-09T08:42:42;1.90;;;0.57;;
47053;SDS011;32811;52.382;5.270;2022-07-09T08:45:11;0.93;;;0.40;;
47053;SDS011;32811;52.382;5.270;2022-07-09T08:47:40;1.83;;;0.70;;
47053;SDS011;32811;52.382;5.270;2022-07-09T08:50:08;2.53;;;0.70;;
47053;SDS011;32811;52.382;5.270;2022-07-09T08:52:35;1.67;;;0.63;;
47053;SDS011;32811;52.382;5.270;2022-07-09T08:55:03;1.67;;;0.65;;
47053;SDS011;32811;52.382;5.270;2022-07-09T08:57:30;1.35;;;0.52;;
47053;SDS011;32811;52.382;5.270;2022-07-09T08:59:57;1.13;;;0.40;;
47053;SDS011;32811;52.382;5.270;2022-07-09T09:02:24;6.45;;;1.75;;
47053;SDS011;32811;52.382;5.270;2022-07-09T09:04:51;0.50;;;0.45;;
47053;SDS011;32811;52.382;5.270;2022-07-09T09:07:20;1.52;;;0.50;;
47053;SDS011;32811;52.382;5.270;2022-07-09T09:09:49;2.75;;;0.43;;
47053;SDS011;32811;52.382;5.270;2022-07-09T09:12:25;2.17;;;0.52;;
47053;SDS011;32811;52.382;5.270;2022-07-09T09:14:53;0.70;;;0.30;;
47053;SDS011;32811;52.382;5.270;2022-07-09T09:17:20;1.70;;;0.50;;
47053;SDS011;32811;52.382;5.270;2022-07-09T09:19:46;3.90;;;0.50;;
47053;SDS011;32811;52.382;5.270;2022-07-09T09:22:16;4.03;;;0.75;;
47053;SDS011;32811;52.382;5.270;2022-07-09T09:24:46;1.88;;;0.50;;
47053;SDS011;32811;52.382;5.270;2022-07-09T09:27:15;1.70;;;0.40;;
47053;SDS011;32811;52.382;5.270;2022-07-09T09:29:48;2.80;;;0.43;;
47053;SDS011;32811;52.382;5.270;2022-07-09T09:34:48;1.80;;;0.60;;
47053;SDS011;32811;52.382;5.270;2022-07-09T09:37:24;1.52;;;0.50;;
47053;SDS011;32811;52.382;5.270;2022-07-09T09:39:52;3.10;;;0.50;;
47053;SDS011;32811;52.382;5.270;2022-07-09T09:42:19;3.17;;;0.32;;
47053;SDS011;32811;52.382;5.270;2022-07-09T09:44:49;1.67;;;0.50;;
47053;SDS011;32811;52.382;5.270;2022-07-09T09:47:18;4.22;;;0.70;;
47053;SDS011;32811;52.382;5.270;2022-07-09T09:49:46;5.63;;;0.40;;
47053;SDS011;32811;52.382;5.270;2022-07-09T09:52:14;2.38;;;0.77;;
47053;SDS011;32811;52.382;5.270;2022-07-09T09:54:41;3.03;;;0.50;;
47053;SDS011;32811;52.382;5.270;2022-07-09T09:57:13;1.08;;;0.30;;
47053;SDS011;32811;52.382;5.270;2022-07-09T09:59:41;3.42;;;0.40;;
47053;SDS011;32811;52.382;5.270;2022-07-09T10:02:09;1.88;;;0.30;;
47053;SDS011;32811;52.382;5.270;2022-07-09T10:04:37;2.13;;;0.55;;
47053;SDS011;32811;52.382;5.270;2022-07-09T10:07:05;4.03;;;0.30;;
47053;SDS011;32811;52.382;5.270;2022-07-09T10:09:32;1.08;;;0.30;;
47053;SDS011;32811;52.382;5.270;2022-07-09T10:11:59;2.83;;;0.63;;
47053;SDS011;32811;52.382;5.270;2022-07-09T10:16:52;2.85;;;0.40;;
47053;SDS011;32811;52.382;5.270;2022-07-09T10:19:25;1.13;;;0.32;;
47053;SDS011;32811;52.382;5.270;2022-07-09T10:24:30;1.77;;;0.50;;
47053;SDS011;32811;52.382;5.270;2022-07-09T10:27:10;1.58;;;0.40;;
47053;SDS011;32811;52.382;5.270;2022-07-09T10:29:55;1.92;;;0.77;;
47053;SDS011;32811;52.382;5.270;2022-07-09T10:32:24;1.10;;;0.20;;
47053;SDS011;32811;52.382;5.270;2022-07-09T10:35:04;1.95;;;0.50;;
47053;SDS011;32811;52.382;5.270;2022-07-09T10:37:40;3.53;;;0.60;;
47053;SDS011;32811;52.382;5.270;2022-07-09T10:40:15;6.63;;;0.52;;
47053;SDS011;32811;52.382;5.270;2022-07-09T10:42:45;3.65;;;0.90;;
47053;SDS011;32811;52.382;5.270;2022-07-09T10:47:55;3.00;;;0.45;;
47053;SDS011;32811;52.382;5.270;2022-07-09T10:50:24;3.70;;;0.63;;
47053;SDS011;32811;52.382;5.270;2022-07-09T10:52:52;5.05;;;0.85;;
47053;SDS011;32811;52.382;5.270;2022-07-09T10:55:22;1.40;;;0.50;;
47053;SDS011;32811;52.382;5.270;2022-07-09T10:57:50;3.90;;;0.50;;
47053;SDS011;32811;52.382;5.270;2022-07-09T11:00:23;1.85;;;0.40;;
47053;SDS011;32811;52.382;5.270;2022-07-09T11:02:58;1.35;;;0.30;;
47053;SDS011;32811;52.382;5.270;2022-07-09T11:05:28;5.22;;;0.52;;
47053;SDS011;32811;52.382;5.270;2022-07-09T11:08:00;1.75;;;0.43;;
47053;SDS011;32811;52.382;5.270;2022-07-09T11:10:29;1.17;;;0.40;;
47053;SDS011;32811;52.382;5.270;2022-07-09T11:12:58;0.73;;;0.32;;
47053;SDS011;32811;52.382;5.270;2022-07-09T11:15:26;2.72;;;0.47;;
47053;SDS011;32811;52.382;5.270;2022-07-09T11:17:54;3.90;;;0.90;;
47053;SDS011;32811;52.382;5.270;2022-07-09T11:20:22;4.40;;;0.40;;
47053;SDS011;32811;52.382;5.270;2022-07-09T11:22:49;2.58;;;0.35;;
47053;SDS011;32811;52.382;5.270;2022-07-09T11:25:23;2.40;;;0.40;;
47053;SDS011;32811;52.382;5.270;2022-07-09T11:27:56;2.55;;;0.60;;
47053;SDS011;32811;52.382;5.270;2022-07-09T11:30:24;7.45;;;1.58;;
47053;SDS011;32811;52.382;5.270;2022-07-09T11:32:51;4.40;;;0.68;;
47053;SDS011;32811;52.382;5.270;2022-07-09T11:35:28;2.85;;;0.35;;
47053;SDS011;32811;52.382;5.270;2022-07-09T11:38:01;3.80;;;0.73;;
47053;SDS011;32811;52.382;5.270;2022-07-09T11:40:29;1.80;;;0.40;;
47053;SDS011;32811;52.382;5.270;2022-07-09T11:42:56;2.35;;;0.40;;
47053;SDS011;32811;52.382;5.270;2022-07-09T11:45:25;2.00;;;0.43;;
47053;SDS011;32811;52.382;5.270;2022-07-09T11:48:03;2.17;;;0.75;;
47053;SDS011;32811;52.382;5.270;2022-07-09T11:50:43;2.15;;;0.63;;
47053;SDS011;32811;52.382;5.270;2022-07-09T11:53:21;4.63;;;0.40;;
47053;SDS011;32811;52.382;5.270;2022-07-09T11:55:58;1.98;;;0.55;;
47053;SDS011;32811;52.382;5.270;2022-07-09T11:58:28;0.82;;;0.30;;
47053;SDS011;32811;52.382;5.270;2022-07-09T12:00:55;0.80;;;0.32;;
47053;SDS011;32811;52.382;5.270;2022-07-09T12:03:24;5.80;;;0.60;;
47053;SDS011;32811;52.382;5.270;2022-07-09T12:05:53;4.82;;;0.50;;
47053;SDS011;32811;52.382;5.270;2022-07-09T12:08:30;1.95;;;0.52;;
47053;SDS011;32811;52.382;5.270;2022-07-09T12:10:58;2.75;;;0.60;;
47053;SDS011;32811;52.382;5.270;2022-07-09T12:13:25;1.85;;;0.40;;
47053;SDS011;32811;52.382;5.270;2022-07-09T12:15:52;2.40;;;0.47;;
47053;SDS011;32811;52.382;5.270;2022-07-09T12:18:19;4.15;;;0.65;;
47053;SDS011;32811;52.382;5.270;2022-07-09T12:20:45;3.25;;;0.50;;
47053;SDS011;32811;52.382;5.270;2022-07-09T12:23:12;6.82;;;0.77;;
47053;SDS011;32811;52.382;5.270;2022-07-09T12:25:39;2.75;;;0.60;;
47053;SDS011;32811;52.382;5.270;2022-07-09T12:28:06;4.22;;;0.50;;
47053;SDS011;32811;52.382;5.270;2022-07-09T12:30:33;6.78;;;0.70;;
47053;SDS011;32811;52.382;5.270;2022-07-09T12:33:00;8.52;;;1.25;;
47053;SDS011;32811;52.382;5.270;2022-07-09T12:35:26;2.33;;;0.50;;
47053;SDS011;32811;52.382;5.270;2022-07-09T12:37:53;7.57;;;1.60;;
47053;SDS011;32811;52.382;5.270;2022-07-09T12:40:22;4.68;;;0.75;;
47053;SDS011;32811;52.382;5.270;2022-07-09T12:42:49;5.15;;;1.10;;
47053;SDS011;32811;52.382;5.270;2022-07-09T12:45:15;2.97;;;0.80;;
47053;SDS011;32811;52.382;5.270;2022-07-09T12:47:42;6.28;;;0.70;;
47053;SDS011;32811;52.382;5.270;2022-07-09T12:50:08;5.82;;;1.05;;
47053;SDS011;32811;52.382;5.270;2022-07-09T12:52:37;2.72;;;0.52;;
47053;SDS011;32811;52.382;5.270;2022-07-09T12:55:04;8.35;;;0.73;;
47053;SDS011;32811;52.382;5.270;2022-07-09T12:57:31;4.93;;;0.88;;
47053;SDS011;32811;52.382;5.270;2022-07-09T12:59:57;4.28;;;0.77;;
47053;SDS011;32811;52.382;5.270;2022-07-09T13:02:24;3.60;;;1.00;;
47053;SDS011;32811;52.382;5.270;2022-07-09T13:04:52;5.45;;;0.82;;
47053;SDS011;32811;52.382;5.270;2022-07-09T13:07:19;3.05;;;1.20;;
47053;SDS011;32811;52.382;5.270;2022-07-09T13:09:45;5.40;;;1.00;;
47053;SDS011;32811;52.382;5.270;2022-07-09T13:12:12;3.38;;;0.60;;
47053;SDS011;32811;52.382;5.270;2022-07-09T13:14:39;4.43;;;0.80;;
47053;SDS011;32811;52.382;5.270;2022-07-09T13:17:05;5.28;;;0.47;;
47053;SDS011;32811;52.382;5.270;2022-07-09T13:19:52;5.47;;;1.30;;
47053;SDS011;32811;52.382;5.270;2022-07-09T13:22:18;3.83;;;1.15;;
47053;SDS011;32811;52.382;5.270;2022-07-09T13:24:45;3.03;;;0.82;;
47053;SDS011;32811;52.382;5.270;2022-07-09T13:27:12;2.33;;;0.40;;
47053;SDS011;32811;52.382;5.270;2022-07-09T13:29:39;5.90;;;1.15;;
47053;SDS011;32811;52.382;5.270;2022-07-09T13:32:06;3.85;;;0.60;;
47053;SDS011;32811;52.382;5.270;2022-07-09T13:34:33;4.20;;;0.80;;
47053;SDS011;32811;52.382;5.270;2022-07-09T13:37:00;3.25;;;0.57;;
47053;SDS011;32811;52.382;5.270;2022-07-09T13:39:27;4.50;;;0.60;;
47053;SDS011;32811;52.382;5.270;2022-07-09T13:41:53;4.95;;;1.52;;
47053;SDS011;32811;52.382;5.270;2022-07-09T13:44:20;3.58;;;0.40;;
47053;SDS011;32811;52.382;5.270;2022-07-09T13:46:47;6.10;;;0.80;;
47053;SDS011;32811;52.382;5.270;2022-07-09T13:49:13;4.38;;;0.75;;
47053;SDS011;32811;52.382;5.270;2022-07-09T13:51:48;2.78;;;0.75;;
47053;SDS011;32811;52.382;5.270;2022-07-09T13:54:14;3.38;;;0.50;;
47053;SDS011;32811;52.382;5.270;2022-07-09T13:56:41;4.18;;;0.70;;
47053;SDS011;32811;52.382;5.270;2022-07-09T13:59:08;4.68;;;0.85;;
47053;SDS011;32811;52.382;5.270;2022-07-09T14:01:34;4.35;;;0.90;;
47053;SDS011;32811;52.382;5.270;2022-07-09T14:04:01;6.63;;;0.73;;
47053;SDS011;32811;52.382;5.270;2022-07-09T14:06:28;4.00;;;0.43;;
47053;SDS011;32811;52.382;5.270;2022-07-09T14:11:40;3.95;;;0.47;;
47053;SDS011;32811;52.382;5.270;2022-07-09T14:14:06;5.68;;;1.48;;
47053;SDS011;32811;52.382;5.270;2022-07-09T14:16:33;2.58;;;0.43;;
47053;SDS011;32811;52.382;5.270;2022-07-09T14:19:00;1.95;;;0.60;;
47053;SDS011;32811;52.382;5.270;2022-07-09T14:21:26;5.15;;;1.13;;
47053;SDS011;32811;52.382;5.270;2022-07-09T14:23:54;3.13;;;0.40;;
47053;SDS011;32811;52.382;5.270;2022-07-09T14:26:21;5.88;;;0.82;;
47053;SDS011;32811;52.382;5.270;2022-07-09T14:28:49;6.30;;;0.85;;
47053;SDS011;32811;52.382;5.270;2022-07-09T14:31:15;2.90;;;0.60;;
47053;SDS011;32811;52.382;5.270;2022-07-09T14:33:42;4.63;;;0.75;;
47053;SDS011;32811;52.382;5.270;2022-07-09T14:36:08;3.85;;;0.70;;
47053;SDS011;32811;52.382;5.270;2022-07-09T14:38:35;2.72;;;0.70;;
47053;SDS011;32811;52.382;5.270;2022-07-09T14:41:02;4.88;;;1.60;;
47053;SDS011;32811;52.382;5.270;2022-07-09T14:43:29;3.20;;;0.98;;
47053;SDS011;32811;52.382;5.270;2022-07-09T14:45:56;10.00;;;1.25;;
47053;SDS011;32811;52.382;5.270;2022-07-09T14:48:22;4.40;;;0.63;;
47053;SDS011;32811;52.382;5.270;2022-07-09T14:50:49;3.67;;;1.40;;
47053;SDS011;32811;52.382;5.270;2022-07-09T14:53:15;3.38;;;0.73;;
47053;SDS011;32811;52.382;5.270;2022-07-09T14:55:42;4.20;;;0.60;;
47053;SDS011;32811;52.382;5.270;2022-07-09T14:58:10;4.60;;;0.80;;
47053;SDS011;32811;52.382;5.270;2022-07-09T15:00:37;3.08;;;0.80;;
47053;SDS011;32811;52.382;5.270;2022-07-09T15:03:04;2.42;;;0.40;;